sensor_id;sensor_type;location;lat;lon;timestamp;pressure;altitude;pressure_sealevel;temperature;humidity
55604;BME280;41468;48.838;9.330;2023-05-07T00:00:18;98221.78;;;14.94;90.47
55604;BME280;41468;48.838;9.330;2023-05-07T00:02:46;98213.59;;;14.76;91.31
55604;BME280;41468;48.838;9.330;2023-05-07T00:05:13;98212.44;;;14.66;92.99
55604;BME280;41468;48.838;9.330;2023-05-07T00:07:41;98216.78;;;14.67;92.48
55604;BME280;41468;48.838;9.330;2023-05-07T00:10:09;98209.31;;;14.75;91.50
55604;BME280;41468;48.838;9.330;2023-05-07T00:12:36;98217.91;;;14.77;90.49
55604;BME280;41468;48.838;9.330;2023-05-07T00:15:03;98210.84;;;14.79;89.45
55604;BME280;41468;48.838;9.330;2023-05-07T00:17:30;98216.28;;;14.97;87.71
55604;BME280;41468;48.838;9.330;2023-05-07T00:19:57;98213.06;;;15.13;86.36
55604;BME280;41468;48.838;9.330;2023-05-07T00:22:24;98219.31;;;15.21;85.93
55604;BME280;41468;48.838;9.330;2023-05-07T00:24:51;98210.75;;;15.01;87.93
55604;BME280;41468;48.838;9.330;2023-05-07T00:27:18;98213.13;;;14.95;88.29
55604;BME280;41468;48.838;9.330;2023-05-07T00:29:44;98208.50;;;14.74;89.63
55604;BME280;41468;48.838;9.330;2023-05-07T00:32:11;98201.78;;;14.83;88.12
55604;BME280;41468;48.838;9.330;2023-05-07T00:34:38;98204.53;;;14.83;87.48
55604;BME280;41468;48.838;9.330;2023-05-07T00:37:05;98196.66;;;14.92;87.54
55604;BME280;41468;48.838;9.330;2023-05-07T00:39:34;98198.25;;;14.82;87.89
55604;BME280;41468;48.838;9.330;2023-05-07T00:42:01;98198.63;;;14.88;87.06
55604;BME280;41468;48.838;9.330;2023-05-07T00:44:40;98199.00;;;14.97;85.97
55604;BME280;41468;48.838;9.330;2023-05-07T00:47:07;98195.47;;;14.93;86.12
55604;BME280;41468;48.838;9.330;2023-05-07T00:49:52;98196.72;;;14.74;87.64
55604;BME280;41468;48.838;9.330;2023-05-07T00:52:20;98189.25;;;14.74;87.07
55604;BME280;41468;48.838;9.330;2023-05-07T00:54:48;98176.72;;;14.70;87.97
55604;BME280;41468;48.838;9.330;2023-05-07T00:57:15;98182.19;;;14.80;87.70
55604;BME280;41468;48.838;9.330;2023-05-07T00:59:42;98175.53;;;14.78;87.76
55604;BME280;41468;48.838;9.330;2023-05-07T01:02:08;98177.88;;;14.69;87.39
55604;BME280;41468;48.838;9.330;2023-05-07T01:04:35;98183.41;;;14.72;87.49
55604;BME280;41468;48.838;9.330;2023-05-07T01:07:04;98183.81;;;14.60;88.39
55604;BME280;41468;48.838;9.330;2023-05-07T01:09:31;98184.63;;;14.57;88.42
55604;BME280;41468;48.838;9.330;2023-05-07T01:11:58;98181.84;;;14.50;89.24
55604;BME280;41468;48.838;9.330;2023-05-07T01:14:25;98179.09;;;14.64;87.93
55604;BME280;41468;48.838;9.330;2023-05-07T01:16:52;98187.34;;;14.57;88.33
55604;BME280;41468;48.838;9.330;2023-05-07T01:19:20;98188.13;;;14.61;88.74
55604;BME280;41468;48.838;9.330;2023-05-07T01:21:48;98195.19;;;14.62;88.44
55604;BME280;41468;48.838;9.330;2023-05-07T01:24:15;98192.06;;;14.53;89.09
55604;BME280;41468;48.838;9.330;2023-05-07T01:26:43;98188.94;;;14.51;90.06
55604;BME280;41468;48.838;9.330;2023-05-07T01:29:11;98190.53;;;14.23;92.63
55604;BME280;41468;48.838;9.330;2023-05-07T01:31:38;98194.47;;;14.29;91.05
55604;BME280;41468;48.838;9.330;2023-05-07T01:34:08;98190.53;;;14.38;90.93
55604;BME280;41468;48.838;9.330;2023-05-07T01:36:37;98187.41;;;14.25;90.66
55604;BME280;41468;48.838;9.330;2023-05-07T01:39:05;98188.97;;;14.29;91.30
55604;BME280;41468;48.838;9.330;2023-05-07T01:41:32;98187.78;;;14.30;90.29
55604;BME280;41468;48.838;9.330;2023-05-07T01:44:00;98185.84;;;14.20;91.52
55604;BME280;41468;48.838;9.330;2023-05-07T01:46:27;98193.69;;;14.07;93.28
55604;BME280;41468;48.838;9.330;2023-05-07T01:48:55;98185.84;;;14.17;91.73
55604;BME280;41468;48.838;9.330;2023-05-07T01:51:22;98185.84;;;14.20;90.61
55604;BME280;41468;48.838;9.330;2023-05-07T01:53:49;98171.72;;;14.14;91.86
55604;BME280;41468;48.838;9.330;2023-05-07T01:56:18;98179.97;;;14.14;91.68
55604;BME280;41468;48.838;9.330;2023-05-07T01:58:45;98183.50;;;14.19;91.65
55604;BME280;41468;48.838;9.330;2023-05-07T02:01:15;98178.78;;;14.01;92.27
55604;BME280;41468;48.838;9.330;2023-05-07T02:03:41;98166.25;;;14.04;91.47
55604;BME280;41468;48.838;9.330;2023-05-07T02:06:08;98173.28;;;14.05;91.34
55604;BME280;41468;48.838;9.330;2023-05-07T02:08:35;98181.16;;;13.99;91.64
55604;BME280;41468;48.838;9.330;2023-05-07T02:11:02;98185.06;;;14.09;90.59
55604;BME280;41468;48.838;9.330;2023-05-07T02:13:31;98187.00;;;14.15;88.94
55604;BME280;41468;48.838;9.330;2023-05-07T02:15:58;98185.81;;;14.24;87.91
55604;BME280;41468;48.838;9.330;2023-05-07T02:18:24;98175.25;;;14.19;87.96
55604;BME280;41468;48.838;9.330;2023-05-07T02:20:51;98178.75;;;14.30;87.37
55604;BME280;41468;48.838;9.330;2023-05-07T02:23:18;98172.88;;;14.28;87.25
55604;BME280;41468;48.838;9.330;2023-05-07T02:25:55;98177.22;;;14.22;87.63
55604;BME280;41468;48.838;9.330;2023-05-07T02:28:22;98190.53;;;14.23;88.07
55604;BME280;41468;48.838;9.330;2023-05-07T02:30:49;98178.78;;;14.05;89.14
55604;BME280;41468;48.838;9.330;2023-05-07T02:33:15;98182.69;;;14.07;89.35
55604;BME280;41468;48.838;9.330;2023-05-07T02:35:53;98193.31;;;14.02;89.57
55604;BME280;41468;48.838;9.330;2023-05-07T02:38:19;98188.19;;;13.97;90.22
55604;BME280;41468;48.838;9.330;2023-05-07T02:40:46;98184.28;;;13.90;90.60
55604;BME280;41468;48.838;9.330;2023-05-07T02:43:13;98181.53;;;13.94;90.48
55604;BME280;41468;48.838;9.330;2023-05-07T02:45:40;98180.38;;;14.06;89.62
55604;BME280;41468;48.838;9.330;2023-05-07T02:48:06;98187.44;;;13.82;91.26
55604;BME280;41468;48.838;9.330;2023-05-07T02:50:33;98187.44;;;13.82;91.25
55604;BME280;41468;48.838;9.330;2023-05-07T02:53:00;98184.69;;;13.85;91.33
55604;BME280;41468;48.838;9.330;2023-05-07T02:55:27;98180.38;;;13.77;92.72
55604;BME280;41468;48.838;9.330;2023-05-07T02:57:53;98186.66;;;13.74;92.51
55604;BME280;41468;48.838;9.330;2023-05-07T03:00:20;98179.59;;;13.62;93.54
55604;BME280;41468;48.838;9.330;2023-05-07T03:02:47;98188.97;;;13.51;94.29
55604;BME280;41468;48.838;9.330;2023-05-07T03:05:14;98178.78;;;13.51;94.31
55604;BME280;41468;48.838;9.330;2023-05-07T03:07:40;98177.19;;;13.29;95.49
55604;BME280;41468;48.838;9.330;2023-05-07T03:10:11;98180.25;;;13.13;96.91
55604;BME280;41468;48.838;9.330;2023-05-07T03:12:38;98176.28;;;12.99;98.03
55604;BME280;41468;48.838;9.330;2023-05-07T03:15:06;98170.88;;;13.14;97.11
55604;BME280;41468;48.838;9.330;2023-05-07T03:17:33;98169.69;;;13.11;95.94
55604;BME280;41468;48.838;9.330;2023-05-07T03:19:59;98164.66;;;13.28;95.11
55604;BME280;41468;48.838;9.330;2023-05-07T03:22:26;98160.38;;;13.52;92.68
55604;BME280;41468;48.838;9.330;2023-05-07T03:24:53;98164.69;;;13.56;91.12
55604;BME280;41468;48.838;9.330;2023-05-07T03:27:19;98160.78;;;13.57;90.42
55604;BME280;41468;48.838;9.330;2023-05-07T03:29:46;98163.13;;;13.44;91.82
55604;BME280;41468;48.838;9.330;2023-05-07T03:32:13;98162.31;;;13.37;91.68
55604;BME280;41468;48.838;9.330;2023-05-07T03:34:39;98155.25;;;13.43;92.02
55604;BME280;41468;48.838;9.330;2023-05-07T03:37:06;98164.66;;;13.31;92.12
55604;BME280;41468;48.838;9.330;2023-05-07T03:39:33;98164.22;;;13.22;93.19
55604;BME280;41468;48.838;9.330;2023-05-07T03:42:00;98164.59;;;13.17;94.11
55604;BME280;41468;48.838;9.330;2023-05-07T03:44:27;98160.66;;;13.03;94.52
55604;BME280;41468;48.838;9.330;2023-05-07T03:46:54;98158.72;;;13.18;93.13
55604;BME280;41468;48.838;9.330;2023-05-07T03:49:21;98156.75;;;13.12;93.90
55604;BME280;41468;48.838;9.330;2023-05-07T03:51:48;98170.88;;;13.14;94.11
55604;BME280;41468;48.838;9.330;2023-05-07T03:54:15;98164.56;;;13.10;94.33
55604;BME280;41468;48.838;9.330;2023-05-07T03:56:41;98170.84;;;13.10;94.41
55604;BME280;41468;48.838;9.330;2023-05-07T03:59:08;98169.69;;;13.18;93.89
55604;BME280;41468;48.838;9.330;2023-05-07T04:01:35;98172.81;;;13.13;94.69
55604;BME280;41468;48.838;9.330;2023-05-07T04:04:02;98180.66;;;13.18;93.93
55604;BME280;41468;48.838;9.330;2023-05-07T04:06:30;98181.41;;;13.08;95.54
55604;BME280;41468;48.838;9.330;2023-05-07T04:08:57;98178.28;;;13.10;95.74
55604;BME280;41468;48.838;9.330;2023-05-07T04:11:24;98182.56;;;13.00;95.84
55604;BME280;41468;48.838;9.330;2023-05-07T04:13:51;98181.47;;;13.22;94.26
55604;BME280;41468;48.838;9.330;2023-05-07T04:16:18;98183.06;;;13.38;92.41
55604;BME280;41468;48.838;9.330;2023-05-07T04:18:44;98177.22;;;13.36;92.14
55604;BME280;41468;48.838;9.330;2023-05-07T04:21:15;98185.81;;;13.31;92.75
55604;BME280;41468;48.838;9.330;2023-05-07T04:23:42;98185.00;;;13.26;92.87
55604;BME280;41468;48.838;9.330;2023-05-07T04:26:09;98182.63;;;13.21;94.11
55604;BME280;41468;48.838;9.330;2023-05-07T04:28:36;98188.91;;;13.25;93.10
55604;BME280;41468;48.838;9.330;2023-05-07T04:31:03;98187.69;;;13.12;94.26
55604;BME280;41468;48.838;9.330;2023-05-07T04:33:30;98194.75;;;13.24;93.69
55604;BME280;41468;48.838;9.330;2023-05-07T04:35:57;98192.38;;;13.08;94.82
55604;BME280;41468;48.838;9.330;2023-05-07T04:38:23;98192.03;;;13.17;94.20
55604;BME280;41468;48.838;9.330;2023-05-07T04:40:50;98189.34;;;13.35;93.49
55604;BME280;41468;48.838;9.330;2023-05-07T04:43:17;98197.59;;;13.38;93.28
55604;BME280;41468;48.838;9.330;2023-05-07T04:45:51;98197.97;;;13.33;92.81
55604;BME280;41468;48.838;9.330;2023-05-07T04:48:18;98193.28;;;13.44;92.34
55604;BME280;41468;48.838;9.330;2023-05-07T04:50:47;98195.66;;;13.46;91.67
55604;BME280;41468;48.838;9.330;2023-05-07T04:53:14;98198.38;;;13.53;91.35
55604;BME280;41468;48.838;9.330;2023-05-07T04:55:41;98197.59;;;13.45;92.21
55604;BME280;41468;48.838;9.330;2023-05-07T04:58:08;98210.94;;;13.65;91.49
55604;BME280;41468;48.838;9.330;2023-05-07T05:00:35;98210.91;;;13.33;92.58
55604;BME280;41468;48.838;9.330;2023-05-07T05:03:02;98213.66;;;13.47;91.87
55604;BME280;41468;48.838;9.330;2023-05-07T05:05:28;98209.75;;;13.41;91.66
55604;BME280;41468;48.838;9.330;2023-05-07T05:07:55;98214.00;;;13.31;93.83
55604;BME280;41468;48.838;9.330;2023-05-07T05:10:22;98211.69;;;13.44;92.91
55604;BME280;41468;48.838;9.330;2023-05-07T05:12:50;98216.41;;;13.47;91.66
55604;BME280;41468;48.838;9.330;2023-05-07T05:15:16;98217.97;;;13.55;89.88
55604;BME280;41468;48.838;9.330;2023-05-07T05:17:43;98226.22;;;13.52;90.19
55604;BME280;41468;48.838;9.330;2023-05-07T05:20:10;98234.44;;;13.59;89.99
55604;BME280;41468;48.838;9.330;2023-05-07T05:22:38;98237.16;;;13.48;90.54
55604;BME280;41468;48.838;9.330;2023-05-07T05:25:05;98233.25;;;13.49;90.77
55604;BME280;41468;48.838;9.330;2023-05-07T05:27:32;98236.81;;;13.67;89.77
55604;BME280;41468;48.838;9.330;2023-05-07T05:29:58;98234.06;;;13.64;89.94
55604;BME280;41468;48.838;9.330;2023-05-07T05:32:31;98231.28;;;13.53;91.53
55604;BME280;41468;48.838;9.330;2023-05-07T05:35:00;98221.13;;;13.61;92.24
55604;BME280;41468;48.838;9.330;2023-05-07T05:37:26;98225.84;;;13.60;91.65
55604;BME280;41468;48.838;9.330;2023-05-07T05:39:53;98234.84;;;13.72;91.11
55604;BME280;41468;48.838;9.330;2023-05-07T05:42:31;98242.69;;;13.69;89.79
55604;BME280;41468;48.838;9.330;2023-05-07T05:44:58;98234.88;;;13.93;88.85
55604;BME280;41468;48.838;9.330;2023-05-07T05:47:25;98234.47;;;14.12;87.07
55604;BME280;41468;48.838;9.330;2023-05-07T05:49:51;98232.09;;;14.29;85.46
55604;BME280;41468;48.838;9.330;2023-05-07T05:52:18;98220.31;;;14.39;84.76
55604;BME280;41468;48.838;9.330;2023-05-07T05:54:45;98232.47;;;14.70;83.32
55604;BME280;41468;48.838;9.330;2023-05-07T05:57:11;98235.94;;;14.92;81.73
55604;BME280;41468;48.838;9.330;2023-05-07T05:59:38;98239.00;;;15.09;80.20
55604;BME280;41468;48.838;9.330;2023-05-07T06:02:06;98242.13;;;15.18;80.16
55604;BME280;41468;48.838;9.330;2023-05-07T06:04:33;98231.13;;;15.14;79.80
55604;BME280;41468;48.838;9.330;2023-05-07T06:06:59;98238.88;;;15.34;78.08
55604;BME280;41468;48.838;9.330;2023-05-07T06:09:26;98239.56;;;15.56;77.42
55604;BME280;41468;48.838;9.330;2023-05-07T06:11:53;98240.41;;;15.42;77.74
55604;BME280;41468;48.838;9.330;2023-05-07T06:14:19;98245.53;;;15.43;77.40
55604;BME280;41468;48.838;9.330;2023-05-07T06:16:58;98248.66;;;15.42;78.40
55604;BME280;41468;48.838;9.330;2023-05-07T06:19:25;98249.13;;;15.30;78.62
55604;BME280;41468;48.838;9.330;2023-05-07T06:21:53;98247.59;;;15.21;80.51
55604;BME280;41468;48.838;9.330;2023-05-07T06:24:20;98256.50;;;15.47;80.70
55604;BME280;41468;48.838;9.330;2023-05-07T06:26:46;98244.16;;;15.80;78.47
55604;BME280;41468;48.838;9.330;2023-05-07T06:29:13;98240.91;;;15.93;76.40
55604;BME280;41468;48.838;9.330;2023-05-07T06:31:40;98244.41;;;15.97;75.44
55604;BME280;41468;48.838;9.330;2023-05-07T06:34:07;98250.19;;;15.54;77.07
55604;BME280;41468;48.838;9.330;2023-05-07T06:36:34;98248.53;;;15.71;76.64
55604;BME280;41468;48.838;9.330;2023-05-07T06:39:01;98252.25;;;15.98;75.77
55604;BME280;41468;48.838;9.330;2023-05-07T06:41:28;98258.09;;;16.07;75.63
55604;BME280;41468;48.838;9.330;2023-05-07T06:43:54;98259.09;;;16.31;74.71
55604;BME280;41468;48.838;9.330;2023-05-07T06:46:21;98257.06;;;16.39;73.77
55604;BME280;41468;48.838;9.330;2023-05-07T06:48:48;98259.34;;;16.48;74.07
55604;BME280;41468;48.838;9.330;2023-05-07T06:51:15;98259.19;;;16.62;73.89
55604;BME280;41468;48.838;9.330;2023-05-07T06:53:41;98264.13;;;16.82;74.31
55604;BME280;41468;48.838;9.330;2023-05-07T06:56:08;98251.56;;;17.15;71.93
55604;BME280;41468;48.838;9.330;2023-05-07T06:58:35;98256.09;;;17.29;72.35
55604;BME280;41468;48.838;9.330;2023-05-07T07:01:01;98247.19;;;17.75;70.79
55604;BME280;41468;48.838;9.330;2023-05-07T07:03:28;98243.56;;;17.82;70.62
55604;BME280;41468;48.838;9.330;2023-05-07T07:05:55;98246.06;;;18.23;69.42
55604;BME280;41468;48.838;9.330;2023-05-07T07:08:22;98243.59;;;18.52;69.39
55604;BME280;41468;48.838;9.330;2023-05-07T07:10:49;98245.56;;;18.75;68.39
55604;BME280;41468;48.838;9.330;2023-05-07T07:13:15;98245.56;;;18.95;67.26
55604;BME280;41468;48.838;9.330;2023-05-07T07:15:43;98249.13;;;18.76;66.66
55604;BME280;41468;48.838;9.330;2023-05-07T07:18:10;98247.00;;;19.24;66.87
55604;BME280;41468;48.838;9.330;2023-05-07T07:20:37;98244.03;;;19.51;63.88
55604;BME280;41468;48.838;9.330;2023-05-07T07:23:04;98234.53;;;19.52;63.17
55604;BME280;41468;48.838;9.330;2023-05-07T07:25:30;98238.38;;;19.74;61.89
55604;BME280;41468;48.838;9.330;2023-05-07T07:27:57;98231.91;;;19.81;60.68
55604;BME280;41468;48.838;9.330;2023-05-07T07:30:24;98235.91;;;19.96;60.59
55604;BME280;41468;48.838;9.330;2023-05-07T07:32:53;98229.56;;;20.28;60.91
55604;BME280;41468;48.838;9.330;2023-05-07T07:35:20;98228.34;;;20.29;58.96
55604;BME280;41468;48.838;9.330;2023-05-07T07:37:47;98230.63;;;20.02;58.36
55604;BME280;41468;48.838;9.330;2023-05-07T07:40:16;98236.22;;;20.15;58.14
55604;BME280;41468;48.838;9.330;2023-05-07T07:42:43;98233.56;;;20.11;59.02
55604;BME280;41468;48.838;9.330;2023-05-07T07:45:14;98233.72;;;20.37;59.01
55604;BME280;41468;48.838;9.330;2023-05-07T07:47:41;98227.97;;;20.60;58.13
55604;BME280;41468;48.838;9.330;2023-05-07T07:50:08;98235.16;;;20.74;57.16
55604;BME280;41468;48.838;9.330;2023-05-07T07:52:36;98233.75;;;20.95;57.51
55604;BME280;41468;48.838;9.330;2023-05-07T07:55:03;98236.22;;;20.93;56.40
55604;BME280;41468;48.838;9.330;2023-05-07T07:57:31;98236.31;;;20.89;56.91
55604;BME280;41468;48.838;9.330;2023-05-07T07:59:57;98243.03;;;21.05;57.26
55604;BME280;41468;48.838;9.330;2023-05-07T08:02:24;98246.69;;;21.02;57.58
55604;BME280;41468;48.838;9.330;2023-05-07T08:04:51;98240.06;;;21.12;57.64
55604;BME280;41468;48.838;9.330;2023-05-07T08:07:18;98239.00;;;20.93;59.12
55604;BME280;41468;48.838;9.330;2023-05-07T08:09:47;98240.88;;;20.96;57.56
55604;BME280;41468;48.838;9.330;2023-05-07T08:12:16;98244.56;;;20.77;58.27
55604;BME280;41468;48.838;9.330;2023-05-07T08:14:42;98239.31;;;21.37;57.13
55604;BME280;41468;48.838;9.330;2023-05-07T08:17:09;98243.06;;;21.30;57.35
55604;BME280;41468;48.838;9.330;2023-05-07T08:19:36;98241.91;;;21.44;57.10
55604;BME280;41468;48.838;9.330;2023-05-07T08:22:03;98239.50;;;21.30;57.25
55604;BME280;41468;48.838;9.330;2023-05-07T08:24:32;98234.25;;;21.48;56.82
55604;BME280;41468;48.838;9.330;2023-05-07T08:26:58;98240.72;;;21.58;56.75
55604;BME280;41468;48.838;9.330;2023-05-07T08:29:25;98238.69;;;21.58;56.94
55604;BME280;41468;48.838;9.330;2023-05-07T08:31:52;98232.34;;;21.96;56.42
55604;BME280;41468;48.838;9.330;2023-05-07T08:34:19;98235.69;;;22.04;56.05
55604;BME280;41468;48.838;9.330;2023-05-07T08:36:57;98227.66;;;22.19;55.26
55604;BME280;41468;48.838;9.330;2023-05-07T08:39:23;98235.84;;;22.48;55.84
55604;BME280;41468;48.838;9.330;2023-05-07T08:41:55;98233.06;;;22.48;54.88
55604;BME280;41468;48.838;9.330;2023-05-07T08:44:26;98239.03;;;22.59;55.24
55604;BME280;41468;48.838;9.330;2023-05-07T08:46:56;98236.13;;;22.28;56.34
55604;BME280;41468;48.838;9.330;2023-05-07T08:49:23;98230.06;;;22.42;57.07
55604;BME280;41468;48.838;9.330;2023-05-07T08:51:49;98228.22;;;22.26;55.07
55604;BME280;41468;48.838;9.330;2023-05-07T08:54:16;98230.06;;;22.42;55.51
55604;BME280;41468;48.838;9.330;2023-05-07T08:56:44;98239.75;;;22.72;55.55
55604;BME280;41468;48.838;9.330;2023-05-07T08:59:10;98238.06;;;22.75;54.48
55604;BME280;41468;48.838;9.330;2023-05-07T09:01:37;98236.59;;;22.83;54.31
55604;BME280;41468;48.838;9.330;2023-05-07T09:04:05;98239.88;;;23.04;53.87
55604;BME280;41468;48.838;9.330;2023-05-07T09:06:33;98237.13;;;23.13;52.97
55604;BME280;41468;48.838;9.330;2023-05-07T09:09:01;98229.75;;;23.72;52.57
55604;BME280;41468;48.838;9.330;2023-05-07T09:11:31;98227.91;;;23.78;52.76
55604;BME280;41468;48.838;9.330;2023-05-07T09:13:58;98231.78;;;24.40;51.49
55604;BME280;41468;48.838;9.330;2023-05-07T09:16:29;98226.56;;;24.60;49.03
55604;BME280;41468;48.838;9.330;2023-05-07T09:18:58;98233.69;;;24.52;49.59
55604;BME280;41468;48.838;9.330;2023-05-07T09:21:25;98228.91;;;24.62;48.95
55604;BME280;41468;48.838;9.330;2023-05-07T09:23:54;98221.13;;;24.66;49.06
55604;BME280;41468;48.838;9.330;2023-05-07T09:26:22;98222.81;;;24.63;48.60
55604;BME280;41468;48.838;9.330;2023-05-07T09:28:48;98218.19;;;24.69;50.58
55604;BME280;41468;48.838;9.330;2023-05-07T09:31:15;98208.25;;;24.96;49.12
55604;BME280;41468;48.838;9.330;2023-05-07T09:33:46;98218.50;;;24.62;47.03
55604;BME280;41468;48.838;9.330;2023-05-07T09:36:13;98214.63;;;24.60;48.28
55604;BME280;41468;48.838;9.330;2023-05-07T09:38:40;98210.06;;;25.08;47.01
55604;BME280;41468;48.838;9.330;2023-05-07T09:41:12;98213.13;;;25.38;46.89
55604;BME280;41468;48.838;9.330;2023-05-07T09:43:40;98213.78;;;25.33;46.13
55604;BME280;41468;48.838;9.330;2023-05-07T09:46:14;98210.69;;;25.22;47.01
55604;BME280;41468;48.838;9.330;2023-05-07T09:48:43;98210.38;;;25.10;46.85
55604;BME280;41468;48.838;9.330;2023-05-07T09:51:22;98206.22;;;25.15;45.46
55604;BME280;41468;48.838;9.330;2023-05-07T09:53:53;98201.69;;;25.27;46.64
55604;BME280;41468;48.838;9.330;2023-05-07T09:56:25;98204.38;;;25.54;46.00
55604;BME280;41468;48.838;9.330;2023-05-07T09:58:54;98203.22;;;25.37;46.21
55604;BME280;41468;48.838;9.330;2023-05-07T10:01:21;98209.88;;;25.40;46.09
55604;BME280;41468;48.838;9.330;2023-05-07T10:03:49;98197.06;;;24.96;47.04
55604;BME280;41468;48.838;9.330;2023-05-07T10:06:17;98205.56;;;25.29;47.62
55604;BME280;41468;48.838;9.330;2023-05-07T10:08:43;98196.94;;;25.94;46.21
55604;BME280;41468;48.838;9.330;2023-05-07T10:11:11;98197.78;;;26.09;45.87
55604;BME280;41468;48.838;9.330;2023-05-07T10:13:38;98203.03;;;25.83;44.99
55604;BME280;41468;48.838;9.330;2023-05-07T10:16:05;98187.66;;;26.12;45.36
55604;BME280;41468;48.838;9.330;2023-05-07T10:18:32;98190.06;;;26.67;43.83
55604;BME280;41468;48.838;9.330;2023-05-07T10:21:07;98193.09;;;26.93;43.10
55604;BME280;41468;48.838;9.330;2023-05-07T10:23:35;98188.19;;;26.25;44.83
55604;BME280;41468;48.838;9.330;2023-05-07T10:26:04;98185.47;;;25.83;45.56
55604;BME280;41468;48.838;9.330;2023-05-07T10:28:36;98176.53;;;26.03;44.86
55604;BME280;41468;48.838;9.330;2023-05-07T10:33:57;98177.41;;;25.75;44.83
55604;BME280;41468;48.838;9.330;2023-05-07T10:36:25;98178.75;;;25.98;43.61
55604;BME280;41468;48.838;9.330;2023-05-07T10:38:52;98182.63;;;25.59;43.91
55604;BME280;41468;48.838;9.330;2023-05-07T10:41:20;98172.59;;;26.09;43.73
55604;BME280;41468;48.838;9.330;2023-05-07T10:43:47;98180.63;;;25.92;43.39
55604;BME280;41468;48.838;9.330;2023-05-07T10:46:17;98175.50;;;25.91;43.30
55604;BME280;41468;48.838;9.330;2023-05-07T10:51:33;98172.72;;;25.91;43.44
55604;BME280;41468;48.838;9.330;2023-05-07T10:56:40;98170.25;;;26.56;41.75
55604;BME280;41468;48.838;9.330;2023-05-07T11:01:52;98162.50;;;26.51;42.26
55604;BME280;41468;48.838;9.330;2023-05-07T11:04:19;98164.06;;;25.79;43.62
55604;BME280;41468;48.838;9.330;2023-05-07T11:15:14;98168.06;;;25.88;42.52
55604;BME280;41468;48.838;9.330;2023-05-07T11:17:55;98164.38;;;26.06;44.05
55604;BME280;41468;48.838;9.330;2023-05-07T11:20:54;98156.34;;;25.98;42.98
55604;BME280;41468;48.838;9.330;2023-05-07T11:28:30;98158.06;;;25.29;43.69
55604;BME280;41468;48.838;9.330;2023-05-07T11:30:57;98151.72;;;25.10;43.03
55604;BME280;41468;48.838;9.330;2023-05-07T11:33:24;98157.38;;;24.83;43.23
55604;BME280;41468;48.838;9.330;2023-05-07T11:35:54;98155.66;;;24.85;43.92
55604;BME280;41468;48.838;9.330;2023-05-07T11:38:21;98149.34;;;24.66;44.88
55604;BME280;41468;48.838;9.330;2023-05-07T11:40:58;98153.81;;;24.27;44.42
55604;BME280;41468;48.838;9.330;2023-05-07T11:43:27;98145.47;;;24.45;45.16
55604;BME280;41468;48.838;9.330;2023-05-07T11:45:54;98146.09;;;24.59;43.76
55604;BME280;41468;48.838;9.330;2023-05-07T11:48:21;98139.56;;;24.62;42.98
55604;BME280;41468;48.838;9.330;2023-05-07T11:53:25;98137.63;;;25.05;43.31
55604;BME280;41468;48.838;9.330;2023-05-07T11:55:55;98150.13;;;25.28;42.86
55604;BME280;41468;48.838;9.330;2023-05-07T11:58:23;98140.38;;;25.14;44.47
55604;BME280;41468;48.838;9.330;2023-05-07T12:00:51;98142.56;;;25.10;43.42
55604;BME280;41468;48.838;9.330;2023-05-07T12:03:18;98150.38;;;24.87;43.73
55604;BME280;41468;48.838;9.330;2023-05-07T12:05:46;98152.41;;;24.78;44.98
55604;BME280;41468;48.838;9.330;2023-05-07T12:08:16;98160.81;;;24.78;43.27
55604;BME280;41468;48.838;9.330;2023-05-07T12:10:44;98160.50;;;24.57;45.03
55604;BME280;41468;48.838;9.330;2023-05-07T12:13:15;98167.31;;;24.65;44.63
55604;BME280;41468;48.838;9.330;2023-05-07T12:15:43;98157.38;;;24.18;46.07
55604;BME280;41468;48.838;9.330;2023-05-07T12:18:12;98160.75;;;23.95;46.83
55604;BME280;41468;48.838;9.330;2023-05-07T12:20:39;98161.06;;;23.97;47.49
55604;BME280;41468;48.838;9.330;2023-05-07T12:23:12;98153.25;;;23.73;47.27
55604;BME280;41468;48.838;9.330;2023-05-07T12:25:39;98160.59;;;23.49;46.84
55604;BME280;41468;48.838;9.330;2023-05-07T12:28:12;98153.75;;;23.50;48.09
55604;BME280;41468;48.838;9.330;2023-05-07T12:30:40;98143.25;;;23.54;47.52
55604;BME280;41468;48.838;9.330;2023-05-07T12:33:07;98153.16;;;23.55;47.49
55604;BME280;41468;48.838;9.330;2023-05-07T12:35:38;98157.91;;;23.45;47.19
55604;BME280;41468;48.838;9.330;2023-05-07T12:38:13;98153.19;;;23.24;48.16
55604;BME280;41468;48.838;9.330;2023-05-07T12:40:53;98163.56;;;23.23;47.65
55604;BME280;41468;48.838;9.330;2023-05-07T12:43:21;98167.72;;;23.19;49.85
55604;BME280;41468;48.838;9.330;2023-05-07T12:45:51;98172.63;;;23.14;48.51
55604;BME280;41468;48.838;9.330;2023-05-07T12:48:20;98178.63;;;23.04;48.46
55604;BME280;41468;48.838;9.330;2023-05-07T12:50:51;98179.84;;;23.03;53.00
55604;BME280;41468;48.838;9.330;2023-05-07T12:53:21;98186.91;;;22.94;53.37
55604;BME280;41468;48.838;9.330;2023-05-07T12:55:49;98190.94;;;22.81;51.33
55604;BME280;41468;48.838;9.330;2023-05-07T12:58:18;98181.88;;;22.67;51.38
55604;BME280;41468;48.838;9.330;2023-05-07T13:00:48;98182.53;;;22.49;50.35
55604;BME280;41468;48.838;9.330;2023-05-07T13:03:23;98177.03;;;22.24;49.59
55604;BME280;41468;48.838;9.330;2023-05-07T13:05:51;98180.94;;;22.26;50.45
55604;BME280;41468;48.838;9.330;2023-05-07T13:08:29;98181.28;;;22.16;52.68
55604;BME280;41468;48.838;9.330;2023-05-07T13:10:57;98189.97;;;22.05;53.95
55604;BME280;41468;48.838;9.330;2023-05-07T13:13:25;98208.44;;;21.99;55.52
55604;BME280;41468;48.838;9.330;2023-05-07T13:15:51;98212.91;;;21.96;56.62
55604;BME280;41468;48.838;9.330;2023-05-07T13:18:18;98222.13;;;21.80;61.33
55604;BME280;41468;48.838;9.330;2023-05-07T13:20:45;98226.69;;;21.74;62.09
55604;BME280;41468;48.838;9.330;2023-05-07T13:23:12;98251.44;;;21.43;62.09
55604;BME280;41468;48.838;9.330;2023-05-07T13:25:38;98255.59;;;21.09;64.51
55604;BME280;41468;48.838;9.330;2023-05-07T13:28:05;98252.75;;;20.67;65.90
55604;BME280;41468;48.838;9.330;2023-05-07T13:30:36;98248.78;;;20.36;68.43